createdAt,value
2018-06-30T00:01:38.080Z,5.90
2018-06-30T00:04:07.019Z,5.10
2018-06-30T00:06:36.876Z,5.63
2018-06-30T00:09:08.796Z,5.40
2018-06-30T00:11:37.818Z,5.33
2018-06-30T00:14:06.863Z,4.80
2018-06-30T00:16:36.367Z,5.70
2018-06-30T00:19:06.261Z,5.07
2018-06-30T00:21:35.160Z,5.30
2018-06-30T00:24:04.193Z,5.73
2018-06-30T00:26:33.059Z,5.53
2018-06-30T00:29:02.171Z,5.63
2018-06-30T00:31:31.197Z,5.90
2018-06-30T00:34:00.595Z,5.43
2018-06-30T00:36:29.467Z,5.43
2018-06-30T00:38:58.600Z,4.97
2018-06-30T00:41:28.574Z,6.07
2018-06-30T00:44:03.563Z,5.33
2018-06-30T00:46:32.619Z,5.70
2018-06-30T00:49:01.866Z,5.60
2018-06-30T00:51:31.172Z,5.67
2018-06-30T00:54:00.761Z,5.23
2018-06-30T00:56:29.704Z,4.97
2018-06-30T00:58:58.630Z,5.03
2018-06-30T01:01:27.351Z,5.67
2018-06-30T01:03:56.248Z,5.80
2018-06-30T01:06:25.061Z,5.63
2018-06-30T01:08:53.948Z,5.00
2018-06-30T01:11:22.811Z,5.10
2018-06-30T01:13:51.690Z,5.20
2018-06-30T01:16:20.580Z,6.07
2018-06-30T01:18:49.468Z,5.50
2018-06-30T01:21:18.275Z,5.77
2018-06-30T01:23:47.230Z,5.50
2018-06-30T01:26:16.223Z,6.07
2018-06-30T01:28:45.057Z,4.80
2018-06-30T01:31:14.049Z,6.37
2018-06-30T01:33:42.889Z,5.60
2018-06-30T01:36:11.785Z,5.50
2018-06-30T01:38:40.665Z,5.43
2018-06-30T01:41:09.464Z,5.90
2018-06-30T01:43:38.391Z,5.60
2018-06-30T01:46:07.201Z,5.67
2018-06-30T01:48:36.048Z,5.97
2018-06-30T01:51:05.515Z,5.57
2018-06-30T01:53:34.255Z,5.97
2018-06-30T01:56:02.899Z,5.60
2018-06-30T01:58:31.674Z,6.37
2018-06-30T02:01:00.716Z,5.57
2018-06-30T02:03:29.974Z,5.67
2018-06-30T02:05:59.285Z,6.70
2018-06-30T02:08:28.195Z,6.50
2018-06-30T02:10:57.016Z,6.13
2018-06-30T02:13:26.059Z,5.50
2018-06-30T02:15:55.282Z,6.87
2018-06-30T02:18:23.994Z,6.77
2018-06-30T02:20:52.778Z,6.83
2018-06-30T02:23:21.728Z,6.60
2018-06-30T02:25:50.583Z,6.13
2018-06-30T02:28:19.319Z,5.93
2018-06-30T02:30:47.979Z,6.83
2018-06-30T02:33:16.723Z,6.27
2018-06-30T02:35:45.520Z,7.07
2018-06-30T02:38:14.235Z,6.53
2018-06-30T02:40:42.980Z,7.00
2018-06-30T02:43:11.819Z,6.63
2018-06-30T02:45:40.610Z,6.73
2018-06-30T02:48:09.608Z,7.57
2018-06-30T02:50:38.304Z,7.03
2018-06-30T02:53:06.944Z,7.27
2018-06-30T02:55:35.678Z,7.40
2018-06-30T02:58:04.504Z,7.30
2018-06-30T03:00:33.203Z,7.43
2018-06-30T03:03:01.889Z,7.70
2018-06-30T03:05:30.676Z,7.27
2018-06-30T03:07:59.364Z,7.27
2018-06-30T03:10:28.112Z,7.23
2018-06-30T03:12:56.926Z,7.43
2018-06-30T03:15:25.866Z,7.97
2018-06-30T03:17:54.572Z,7.77
2018-06-30T03:20:23.362Z,7.67
2018-06-30T03:22:52.153Z,7.47
2018-06-30T03:25:20.735Z,7.63
2018-06-30T03:27:49.463Z,7.73
2018-06-30T03:30:18.182Z,7.80
2018-06-30T03:32:46.822Z,8.40
2018-06-30T03:35:15.687Z,8.57
2018-06-30T03:37:44.682Z,8.03
2018-06-30T03:40:13.449Z,9.37
2018-06-30T03:42:42.231Z,8.17
2018-06-30T03:45:10.918Z,9.13
2018-06-30T03:47:39.628Z,9.50
2018-06-30T03:50:08.330Z,8.70
2018-06-30T03:52:36.950Z,9.20
2018-06-30T03:55:05.947Z,9.00
2018-06-30T03:57:35.574Z,9.10
2018-06-30T04:00:04.831Z,9.20
2018-06-30T04:02:33.518Z,9.70
2018-06-30T04:05:02.153Z,9.23
2018-06-30T04:07:30.999Z,9.57
2018-06-30T04:09:59.921Z,9.47
2018-06-30T04:12:28.613Z,10.20
2018-06-30T04:14:57.435Z,10.50
2018-06-30T04:17:26.240Z,10.13
2018-06-30T04:19:54.979Z,10.30
2018-06-30T04:22:23.836Z,10.00
2018-06-30T04:24:52.575Z,10.23
2018-06-30T04:27:21.262Z,9.97
2018-06-30T04:29:49.988Z,10.17
2018-06-30T04:32:18.923Z,10.80
2018-06-30T04:34:47.697Z,11.53
2018-06-30T04:37:16.324Z,11.60
2018-06-30T04:39:45.040Z,11.53
2018-06-30T04:42:13.816Z,9.53
2018-06-30T04:44:42.499Z,10.50
2018-06-30T04:47:11.169Z,10.27
2018-06-30T04:49:39.941Z,10.03
2018-06-30T04:52:08.820Z,11.00
2018-06-30T04:54:37.510Z,10.07
2018-06-30T04:57:06.307Z,10.97
2018-06-30T04:59:35.192Z,11.27
2018-06-30T05:02:04.016Z,11.07
2018-06-30T05:04:32.683Z,10.30
2018-06-30T05:07:01.501Z,11.60
2018-06-30T05:09:30.294Z,10.67
2018-06-30T05:11:59.044Z,11.07
2018-06-30T05:14:27.886Z,10.50
2018-06-30T05:16:56.644Z,10.40
2018-06-30T05:19:25.439Z,11.40
2018-06-30T05:21:55.015Z,11.00
2018-06-30T05:24:23.886Z,10.43
2018-06-30T05:26:52.840Z,10.50
2018-06-30T05:29:21.709Z,10.70
2018-06-30T05:31:50.602Z,10.90
2018-06-30T05:34:19.290Z,10.70
2018-06-30T05:36:48.116Z,11.00
2018-06-30T05:39:17.003Z,10.80
2018-06-30T05:41:45.880Z,10.30
2018-06-30T05:44:15.585Z,9.60
2018-06-30T05:46:44.565Z,9.67
2018-06-30T05:49:13.370Z,11.10
2018-06-30T05:51:43.481Z,10.67
2018-06-30T05:54:12.302Z,9.87
2018-06-30T05:56:41.224Z,9.00
2018-06-30T05:59:10.137Z,9.27
2018-06-30T06:01:39.522Z,8.73
2018-06-30T06:04:09.748Z,10.27
2018-06-30T06:06:40.681Z,9.10
2018-06-30T06:09:10.894Z,9.40
2018-06-30T06:11:42.994Z,8.33
2018-06-30T06:14:14.809Z,9.07
2018-06-30T06:16:43.887Z,8.43
2018-06-30T06:19:13.089Z,8.43
2018-06-30T06:21:41.992Z,8.53
2018-06-30T06:24:11.069Z,8.73
2018-06-30T06:26:40.040Z,7.40
2018-06-30T06:29:09.069Z,8.70
2018-06-30T06:31:38.174Z,7.83
2018-06-30T06:34:07.542Z,8.10
2018-06-30T06:36:36.448Z,8.13
2018-06-30T06:39:07.818Z,8.43
2018-06-30T06:41:37.113Z,7.97
2018-06-30T06:44:05.995Z,7.53
2018-06-30T06:46:47.039Z,8.47
2018-06-30T06:49:16.401Z,6.53
2018-06-30T06:51:45.984Z,7.70
2018-06-30T06:54:15.394Z,7.60
2018-06-30T06:59:50.217Z,7.00
2018-06-30T07:04:53.342Z,6.53
2018-06-30T07:13:05.656Z,7.00
2018-06-30T07:15:39.605Z,33.27
2018-06-30T07:20:49.196Z,5.77
2018-06-30T07:26:26.369Z,5.97
2018-06-30T07:28:59.889Z,5.97
2018-06-30T07:31:29.743Z,5.63
2018-06-30T07:34:00.084Z,5.17
2018-06-30T07:36:50.976Z,5.33
2018-06-30T07:42:49.264Z,5.07
2018-06-30T07:51:08.409Z,6.60
2018-06-30T07:53:39.342Z,7.62
2018-06-30T07:56:13.926Z,5.70
2018-06-30T09:08:03.535Z,5.50
2018-06-30T09:10:33.548Z,24.20
2018-06-30T09:13:02.312Z,7.00
2018-06-30T09:18:46.974Z,6.92
2018-06-30T09:27:16.619Z,9.70
2018-06-30T09:29:46.737Z,11.93
2018-06-30T09:32:17.312Z,5.60
2018-06-30T09:34:54.755Z,5.40
2018-06-30T09:37:24.392Z,4.75
2018-06-30T09:39:55.206Z,4.90
2018-06-30T09:42:30.664Z,5.00
2018-06-30T09:45:00.746Z,5.25
2018-06-30T09:47:32.784Z,5.25
2018-06-30T09:50:02.355Z,5.50
2018-06-30T09:52:32.037Z,4.87
2018-06-30T09:55:01.642Z,5.90
2018-06-30T09:57:31.648Z,4.97
2018-06-30T10:00:01.392Z,5.37
2018-06-30T10:02:33.832Z,5.37
2018-06-30T10:05:04.256Z,4.85
2018-06-30T10:07:33.913Z,4.22
2018-06-30T10:10:04.134Z,4.50
2018-06-30T10:12:33.823Z,4.65
2018-06-30T10:15:03.765Z,5.20
2018-06-30T10:17:33.136Z,4.45
2018-06-30T10:20:04.365Z,4.60
2018-06-30T10:22:35.281Z,4.12
2018-06-30T10:25:05.612Z,4.97
2018-06-30T10:27:35.180Z,4.65
2018-06-30T10:30:05.899Z,4.60
2018-06-30T10:32:35.603Z,4.28
2018-06-30T10:35:05.026Z,4.17
2018-06-30T10:37:35.122Z,4.65
2018-06-30T10:40:05.125Z,4.00
2018-06-30T10:42:35.326Z,4.12
2018-06-30T10:45:04.271Z,4.30
2018-06-30T10:47:32.976Z,4.50
2018-06-30T10:50:01.851Z,4.47
2018-06-30T10:52:30.827Z,4.00
2018-06-30T10:54:59.743Z,4.67
2018-06-30T10:57:28.644Z,4.80
2018-06-30T10:59:57.477Z,4.45
2018-06-30T11:02:26.313Z,4.45
2018-06-30T11:04:55.475Z,4.97
2018-06-30T11:07:24.220Z,4.70
2018-06-30T11:09:52.945Z,4.78
2018-06-30T11:12:22.102Z,4.45
2018-06-30T11:14:51.012Z,4.22
2018-06-30T11:17:19.800Z,3.83
2018-06-30T11:19:49.077Z,3.77
2018-06-30T11:22:18.015Z,3.87
2018-06-30T11:24:46.816Z,4.03
2018-06-30T11:27:15.518Z,4.30
2018-06-30T11:29:44.232Z,5.15
2018-06-30T11:32:12.972Z,4.10
2018-06-30T11:34:41.648Z,4.20
2018-06-30T11:37:10.453Z,4.28
2018-06-30T11:39:40.019Z,3.50
2018-06-30T11:42:09.260Z,3.92
2018-06-30T11:44:38.471Z,3.87
2018-06-30T11:47:07.302Z,3.92
2018-06-30T11:49:36.167Z,3.58
2018-06-30T11:52:05.143Z,3.60
2018-06-30T11:54:33.917Z,3.62
2018-06-30T11:57:02.835Z,4.17
2018-06-30T11:59:31.717Z,3.80
2018-06-30T12:02:00.700Z,3.90
2018-06-30T12:04:29.592Z,3.85
2018-06-30T12:06:58.494Z,4.30
2018-06-30T12:09:27.267Z,3.83
2018-06-30T12:11:56.080Z,3.87
2018-06-30T12:14:25.078Z,3.40
2018-06-30T12:16:54.492Z,3.80
2018-06-30T12:19:23.350Z,3.60
2018-06-30T12:21:52.563Z,4.23
2018-06-30T12:24:21.896Z,3.10
2018-06-30T12:26:50.949Z,3.40
2018-06-30T12:29:19.959Z,3.90
2018-06-30T12:31:49.008Z,3.23
2018-06-30T12:34:17.925Z,3.27
2018-06-30T12:36:48.905Z,3.03
2018-06-30T12:39:18.128Z,2.97
2018-06-30T12:41:46.955Z,2.83
2018-06-30T12:44:16.028Z,2.90
2018-06-30T12:46:44.802Z,3.20
2018-06-30T12:49:13.816Z,3.20
2018-06-30T12:51:42.660Z,3.03
2018-06-30T12:54:11.818Z,2.70
2018-06-30T12:56:45.517Z,2.70
2018-06-30T12:59:15.141Z,3.03
2018-06-30T13:01:44.095Z,3.00
2018-06-30T13:04:12.914Z,2.63
2018-06-30T13:06:41.777Z,2.47
2018-06-30T13:09:12.183Z,2.40
2018-06-30T13:11:41.339Z,2.67
2018-06-30T13:14:10.251Z,2.47
2018-06-30T13:16:39.727Z,2.83
2018-06-30T13:19:09.988Z,2.93
2018-06-30T13:21:38.931Z,2.40
2018-06-30T13:24:11.081Z,2.43
2018-06-30T13:26:39.969Z,2.40
2018-06-30T13:29:08.981Z,2.20
2018-06-30T13:31:37.826Z,2.00
2018-06-30T13:34:07.323Z,2.10
2018-06-30T13:36:37.367Z,2.40
2018-06-30T13:39:10.771Z,1.90
2018-06-30T13:41:39.835Z,2.13
2018-06-30T13:44:08.715Z,2.63
2018-06-30T13:46:37.754Z,2.77
2018-06-30T13:49:06.758Z,2.70
2018-06-30T13:51:35.798Z,2.10
2018-06-30T13:54:04.856Z,2.00
2018-06-30T13:56:33.798Z,2.10
2018-06-30T13:59:03.488Z,2.00
2018-06-30T14:01:32.359Z,2.20
2018-06-30T14:04:01.147Z,2.10
2018-06-30T14:06:29.979Z,1.70
2018-06-30T14:08:59.378Z,1.80
2018-06-30T14:11:28.698Z,2.40
2018-06-30T14:13:57.759Z,1.97
2018-06-30T14:16:26.907Z,2.53
2018-06-30T14:18:55.739Z,1.83
2018-06-30T14:21:24.764Z,1.80
2018-06-30T14:23:53.805Z,2.10
2018-06-30T14:26:22.956Z,2.37
2018-06-30T14:28:53.642Z,1.67
2018-06-30T14:31:24.223Z,1.97
2018-06-30T14:33:53.732Z,2.57
2018-06-30T14:36:23.436Z,1.83
2018-06-30T14:38:53.094Z,2.27
2018-06-30T14:41:22.617Z,1.87
2018-06-30T14:43:52.483Z,1.90
2018-06-30T14:46:23.106Z,1.97
2018-06-30T14:48:52.317Z,1.60
2018-06-30T14:51:21.900Z,1.70
2018-06-30T14:53:51.194Z,1.87
2018-06-30T14:56:27.690Z,1.50
2018-06-30T14:59:04.011Z,1.83
2018-06-30T15:01:38.912Z,1.63
2018-06-30T15:04:10.395Z,1.67
2018-06-30T15:06:47.885Z,1.60
2018-06-30T15:09:25.047Z,1.40
2018-06-30T15:14:49.128Z,2.00
2018-06-30T15:17:26.101Z,1.70
2018-06-30T15:25:25.004Z,1.50
2018-06-30T15:27:59.673Z,1.80
2018-06-30T15:36:01.909Z,1.43
2018-06-30T15:38:39.317Z,1.83
2018-06-30T15:41:17.419Z,2.40
2018-06-30T15:43:53.586Z,1.60
2018-06-30T15:49:18.381Z,1.60
2018-06-30T15:51:50.092Z,1.50
2018-06-30T15:54:24.463Z,1.83
2018-06-30T15:57:00.755Z,1.50
2018-06-30T15:59:36.713Z,1.17
2018-06-30T16:02:11.034Z,1.03
2018-06-30T16:04:52.436Z,1.10
2018-06-30T16:07:30.089Z,1.00
2018-06-30T16:10:00.920Z,0.93
2018-06-30T16:12:31.868Z,0.97
2018-06-30T16:15:03.080Z,1.57
2018-06-30T16:20:07.864Z,1.27
2018-06-30T16:22:39.966Z,1.20
2018-06-30T16:25:10.273Z,1.10
2018-06-30T16:27:42.705Z,1.20
2018-06-30T16:30:12.482Z,1.40
2018-06-30T16:32:42.736Z,1.13
2018-06-30T16:35:12.703Z,1.17
2018-06-30T16:37:42.608Z,1.20
2018-06-30T16:40:13.889Z,0.93
2018-06-30T16:42:44.053Z,1.10
2018-06-30T16:45:21.722Z,1.20
2018-06-30T16:47:59.555Z,1.40
2018-06-30T16:50:38.204Z,0.90
2018-06-30T16:53:09.996Z,1.10
2018-06-30T16:55:39.076Z,1.50
2018-06-30T16:58:08.423Z,1.40
2018-06-30T17:00:38.025Z,1.30
2018-06-30T17:03:07.445Z,1.03
2018-06-30T17:05:36.561Z,1.20
2018-06-30T17:08:05.824Z,1.00
2018-06-30T17:10:34.716Z,1.30
2018-06-30T17:13:03.776Z,0.90
2018-06-30T17:15:32.643Z,1.60
2018-06-30T17:18:01.798Z,1.17
2018-06-30T17:20:30.977Z,1.30
2018-06-30T17:22:59.936Z,0.60
2018-06-30T17:25:29.687Z,1.37
2018-06-30T17:27:58.625Z,0.73
2018-06-30T17:30:27.840Z,1.00
2018-06-30T17:32:56.833Z,1.10
2018-06-30T17:35:26.494Z,1.73
2018-06-30T17:37:55.162Z,0.80
2018-06-30T17:40:23.941Z,1.30
2018-06-30T17:42:52.632Z,0.90
2018-06-30T17:45:23.302Z,1.17
2018-06-30T17:47:58.536Z,1.30
2018-06-30T17:50:35.090Z,1.57
2018-06-30T17:55:46.763Z,1.50
2018-06-30T17:58:23.980Z,1.00
2018-06-30T18:00:55.332Z,1.10
2018-06-30T18:03:28.565Z,1.03
2018-06-30T18:06:00.162Z,2.30
2018-06-30T18:08:33.880Z,1.50
2018-06-30T18:11:07.566Z,2.13
2018-06-30T18:13:39.976Z,1.20
2018-06-30T18:16:10.667Z,0.70
2018-06-30T18:18:44.297Z,0.63
2018-06-30T18:21:16.562Z,0.87
2018-06-30T18:23:46.988Z,0.70
2018-06-30T18:26:15.980Z,0.80
2018-06-30T18:28:45.154Z,1.07
2018-06-30T18:31:14.038Z,0.97
2018-06-30T18:33:42.856Z,1.20
2018-06-30T18:36:12.374Z,0.83
2018-06-30T18:38:41.111Z,0.70
2018-06-30T18:41:10.102Z,0.80
2018-06-30T18:43:39.043Z,0.80
2018-06-30T18:46:08.472Z,0.80
2018-06-30T18:48:37.360Z,0.90
2018-06-30T18:51:06.250Z,0.70
2018-06-30T18:53:35.485Z,0.70
2018-06-30T18:56:05.308Z,0.67
2018-06-30T18:58:34.313Z,0.80
2018-06-30T19:01:04.852Z,0.80
2018-06-30T19:03:34.574Z,0.90
2018-06-30T19:06:03.722Z,0.93
2018-06-30T19:08:34.246Z,0.70
2018-06-30T19:11:04.181Z,1.37
2018-06-30T19:13:34.125Z,0.80
2018-06-30T19:16:04.108Z,0.80
2018-06-30T19:18:36.105Z,0.80
2018-06-30T19:21:08.006Z,0.80
2018-06-30T19:23:38.678Z,0.80
2018-06-30T19:26:11.121Z,0.60
2018-06-30T19:28:43.912Z,0.83
2018-06-30T19:31:14.322Z,0.90
2018-06-30T19:33:43.873Z,0.80
2018-06-30T19:36:16.675Z,0.70
2018-06-30T19:38:47.255Z,0.80
2018-06-30T19:41:17.766Z,0.90
2018-06-30T19:43:47.075Z,0.90
2018-06-30T19:46:16.409Z,0.90
2018-06-30T19:48:46.611Z,1.30
2018-06-30T19:51:16.302Z,1.10
2018-06-30T19:53:49.462Z,1.20
2018-06-30T19:56:19.439Z,1.37
2018-06-30T19:58:52.696Z,1.10
2018-06-30T20:01:22.246Z,1.00
2018-06-30T20:03:51.107Z,0.90
2018-06-30T20:06:20.083Z,1.10
2018-06-30T20:08:49.211Z,0.90
2018-06-30T20:11:19.717Z,1.40
2018-06-30T20:13:48.415Z,1.03
2018-06-30T20:16:17.055Z,1.40
2018-06-30T20:18:45.814Z,1.27
2018-06-30T20:21:14.406Z,1.47
2018-06-30T20:23:43.138Z,1.30
2018-06-30T20:26:11.745Z,1.20
2018-06-30T20:29:00.369Z,1.00
2018-06-30T20:31:29.504Z,0.90
2018-06-30T20:33:58.969Z,1.10
2018-06-30T20:36:28.107Z,1.37
2018-06-30T20:38:56.995Z,1.67
2018-06-30T20:41:25.988Z,2.80
2018-06-30T20:43:54.951Z,1.00
2018-06-30T20:49:16.454Z,2.87
2018-06-30T20:51:45.847Z,0.90
2018-06-30T20:54:15.332Z,1.20
2018-06-30T20:56:44.914Z,1.53
2018-06-30T20:59:15.580Z,1.30
2018-06-30T21:01:44.884Z,1.20
2018-06-30T21:04:14.446Z,1.20
2018-06-30T21:06:44.228Z,1.50
2018-06-30T21:09:13.877Z,1.30
2018-06-30T21:11:43.362Z,1.30
2018-06-30T21:14:12.404Z,1.30
2018-06-30T21:16:41.669Z,1.50
2018-06-30T21:19:12.003Z,1.33
2018-06-30T21:21:41.527Z,0.93
2018-06-30T21:24:11.079Z,0.87
2018-06-30T21:35:56.871Z,3.00
2018-06-30T21:38:46.753Z,1.40
2018-06-30T21:41:28.612Z,0.80
2018-06-30T21:46:53.041Z,1.00
2018-06-30T21:49:38.099Z,0.90
2018-06-30T21:54:59.288Z,1.30
2018-06-30T21:57:39.648Z,1.00
2018-06-30T22:00:23.019Z,1.03
2018-06-30T22:02:55.457Z,0.97
2018-06-30T22:08:09.622Z,0.90
2018-06-30T22:10:54.358Z,0.80
2018-06-30T22:13:24.811Z,0.80
2018-06-30T22:15:55.653Z,1.03
2018-06-30T22:18:30.066Z,1.10
2018-06-30T22:21:21.524Z,0.80
2018-06-30T22:23:52.878Z,1.20
2018-06-30T22:26:23.399Z,0.80
2018-06-30T22:28:54.750Z,0.80
2018-06-30T22:31:24.957Z,1.00
2018-06-30T22:33:54.754Z,1.00
2018-06-30T22:36:26.466Z,0.80
2018-06-30T22:38:56.833Z,0.80
2018-06-30T22:41:27.001Z,0.60
2018-06-30T22:43:57.228Z,0.70
2018-06-30T22:46:26.839Z,0.70
2018-06-30T22:48:57.237Z,1.10
2018-06-30T22:51:26.765Z,0.97
2018-06-30T22:53:57.368Z,0.83
2018-06-30T22:56:28.532Z,0.90
2018-06-30T22:58:59.331Z,1.13
2018-06-30T23:01:30.005Z,0.80
2018-06-30T23:04:00.760Z,0.90
2018-06-30T23:06:31.397Z,0.67
2018-06-30T23:09:01.590Z,0.80
2018-06-30T23:11:31.714Z,1.00
2018-06-30T23:14:05.119Z,1.13
2018-06-30T23:16:39.402Z,0.80
2018-06-30T23:19:12.405Z,0.90
2018-06-30T23:21:43.059Z,1.00
2018-06-30T23:24:12.795Z,0.90
2018-06-30T23:26:45.207Z,1.03
2018-06-30T23:29:15.602Z,1.10
2018-06-30T23:31:45.751Z,0.90
2018-06-30T23:34:15.937Z,1.13
2018-06-30T23:36:46.905Z,1.00
2018-06-30T23:39:17.136Z,1.30
2018-06-30T23:41:47.485Z,1.10
2018-06-30T23:44:20.362Z,1.20
2018-06-30T23:46:55.621Z,1.30
2018-06-30T23:49:29.497Z,1.30
2018-06-30T23:52:01.071Z,1.40
2018-06-30T23:54:35.288Z,1.40
2018-06-30T23:57:09.953Z,1.07
2018-06-30T23:59:39.367Z,1.20
